Time,TemperatureF,DewpointF,PressureIn,WindDirection,WindDirectionDegrees,WindSpeedMPH,WindSpeedGustMPH,Humidity,HourlyPrecipIn,Conditions,Clouds,dailyrainin,SoftwareType,DateUTC
2013-07-03 00:13:00,72.3,67.9,29.91,WSW,247,1.7,-999.0,86,-99.99,,,0.00,Acu-Link.com,2013-07-03 04:13:00,
2013-07-03 00:28:00,72.0,67.9,29.91,ESE,112,0.0,-999.0,87,-99.99,,,0.00,Acu-Link.com,2013-07-03 04:28:00,
2013-07-03 00:43:00,72.0,67.9,29.91,South,180,1.1,-999.0,87,-99.99,,,0.00,Acu-Link.com,2013-07-03 04:43:00,
2013-07-03 00:58:00,71.4,67.7,29.91,SE,135,1.1,-999.0,88,-99.99,,,0.00,Acu-Link.com,2013-07-03 04:58:00,
2013-07-03 01:14:00,71.2,67.8,29.91,SSE,157,0.0,-999.0,89,-99.99,,,0.00,Acu-Link.com,2013-07-03 05:14:00,
2013-07-03 01:29:00,71.2,67.8,29.91,SE,135,2.7,-999.0,89,-99.99,,,0.00,Acu-Link.com,2013-07-03 05:29:00,
2013-07-03 01:44:00,71.1,67.7,29.91,SSW,202,0.0,-999.0,89,-99.99,,,0.00,Acu-Link.com,2013-07-03 05:44:00,
2013-07-03 01:59:00,70.7,67.6,29.92,SSE,157,0.0,-999.0,90,-99.99,,,0.00,Acu-Link.com,2013-07-03 05:59:00,
2013-07-03 02:14:00,70.2,67.4,29.92,WNW,292,0.0,-999.0,91,-99.99,,,0.00,Acu-Link.com,2013-07-03 06:14:00,
2013-07-03 02:30:00,69.6,67.5,29.91,WNW,292,0.0,-999.0,93,-99.99,,,0.00,Acu-Link.com,2013-07-03 06:30:00,
2013-07-03 02:45:00,69.3,67.2,29.91,SW,225,0.0,-999.0,93,-99.99,,,0.00,Acu-Link.com,2013-07-03 06:45:00,
2013-07-03 03:00:00,68.7,66.6,29.91,West,270,0.0,-999.0,93,-99.99,,,0.00,Acu-Link.com,2013-07-03 07:00:00,
2013-07-03 03:15:00,68.7,66.9,29.91,East,90,0.0,-999.0,94,-99.99,,,0.00,Acu-Link.com,2013-07-03 07:15:00,
2013-07-03 03:30:00,68.4,66.6,29.90,West,270,0.0,-999.0,94,-99.99,,,0.00,Acu-Link.com,2013-07-03 07:30:00,
2013-07-03 04:16:00,68.4,66.9,29.92,SSE,157,1.1,-999.0,95,-99.99,,,0.00,Acu-Link.com,2013-07-03 08:16:00,
2013-07-03 04:46:00,68.7,66.9,29.92,South,180,1.1,-999.0,94,-99.99,,,0.00,Acu-Link.com,2013-07-03 08:46:00,
2013-07-03 05:02:00,68.7,66.9,29.92,SSW,202,1.7,-999.0,94,-99.99,,,0.00,Acu-Link.com,2013-07-03 09:02:00,
2013-07-03 05:17:00,68.5,66.7,29.92,South,180,1.1,-999.0,94,-99.99,,,0.00,Acu-Link.com,2013-07-03 09:17:00,
2013-07-03 05:32:00,68.4,66.6,29.92,SSE,157,2.7,-999.0,94,-99.99,,,0.00,Acu-Link.com,2013-07-03 09:32:00,
2013-07-03 05:47:00,68.2,66.4,29.93,SSE,157,0.0,-999.0,94,-99.99,,,0.00,Acu-Link.com,2013-07-03 09:47:00,
2013-07-03 06:02:00,68.0,66.2,29.93,ESE,112,1.1,-999.0,94,-99.99,,,0.00,Acu-Link.com,2013-07-03 10:02:00,
2013-07-03 06:33:00,67.6,66.1,29.95,South,180,2.2,-999.0,95,-99.99,,,0.00,Acu-Link.com,2013-07-03 10:33:00,
2013-07-03 06:48:00,67.6,66.1,29.95,ESE,112,0.0,-999.0,95,-99.99,,,0.00,Acu-Link.com,2013-07-03 10:48:00,
2013-07-03 07:19:00,68.2,66.7,29.96,SSE,157,1.7,-999.0,95,-99.99,,,0.00,Acu-Link.com,2013-07-03 11:19:00,
2013-07-03 07:34:00,68.9,66.8,29.97,SSE,157,0.0,-999.0,93,-99.99,,,0.00,Acu-Link.com,2013-07-03 11:34:00,
2013-07-03 07:49:00,69.4,67.0,29.97,WNW,292,2.2,-999.0,92,-99.99,,,0.00,Acu-Link.com,2013-07-03 11:49:00,
2013-07-03 08:04:00,71.8,68.4,29.97,South,180,1.1,-999.0,89,-99.99,,,0.00,Acu-Link.com,2013-07-03 12:04:00,
2013-07-03 08:19:00,71.6,67.9,29.97,NNW,337,2.2,-999.0,88,-99.99,,,0.00,Acu-Link.com,2013-07-03 12:19:00,
2013-07-03 09:05:00,71.6,68.2,29.99,ESE,112,2.2,-999.0,89,-99.99,,,0.00,Acu-Link.com,2013-07-03 13:05:00,
2013-07-03 09:20:00,71.8,68.4,30.00,South,180,2.7,-999.0,89,-99.99,,,0.00,Acu-Link.com,2013-07-03 13:20:00,
2013-07-03 09:35:00,71.4,68.3,30.00,SSW,202,4.2,-999.0,90,-99.99,,,0.00,Acu-Link.com,2013-07-03 13:35:00,
2013-07-03 09:51:00,71.8,68.7,30.00,ESE,112,3.7,-999.0,90,-99.99,,,0.00,Acu-Link.com,2013-07-03 13:51:00,
2013-07-03 10:06:00,72.3,69.5,30.00,SSW,202,2.2,-999.0,91,-99.99,,,0.00,Acu-Link.com,2013-07-03 14:06:00,
2013-07-03 10:36:00,73.2,69.1,30.00,NE,45,3.7,-999.0,87,-99.99,,,0.00,Acu-Link.com,2013-07-03 14:36:00,
2013-07-03 10:51:00,75.2,70.4,29.99,SSW,202,1.1,-999.0,85,-99.99,,,0.00,Acu-Link.com,2013-07-03 14:51:00,
2013-07-03 11:07:00,74.7,69.9,29.99,ESE,112,3.7,-999.0,85,-99.99,,,0.00,Acu-Link.com,2013-07-03 15:07:00,
2013-07-03 11:22:00,78.6,70.8,29.99,SE,135,2.7,-999.0,77,-99.99,,,0.00,Acu-Link.com,2013-07-03 15:22:00,
2013-07-03 11:37:00,78.1,70.3,30.00,ESE,112,2.7,-999.0,77,-99.99,,,0.00,Acu-Link.com,2013-07-03 15:37:00,
2013-07-03 12:07:00,82.0,70.8,29.98,WNW,292,4.2,-999.0,69,-99.99,,,0.00,Acu-Link.com,2013-07-03 16:07:00,
2013-07-03 12:23:00,80.1,70.6,29.98,SSW,202,3.2,-999.0,73,-99.99,,,0.00,Acu-Link.com,2013-07-03 16:23:00,
2013-07-03 12:38:00,78.8,69.0,30.00,South,180,4.2,-999.0,72,-99.99,,,0.00,Acu-Link.com,2013-07-03 16:38:00,
2013-07-03 12:53:00,78.3,69.3,30.00,SE,135,1.7,-999.0,74,-99.99,,,0.00,Acu-Link.com,2013-07-03 16:53:00,
2013-07-03 13:08:00,78.6,69.6,29.99,SSE,157,4.2,-999.0,74,-99.99,,,0.00,Acu-Link.com,2013-07-03 17:08:00,
2013-07-03 13:24:00,79.5,69.7,29.99,ESE,112,4.2,-999.0,72,-99.99,,,0.00,Acu-Link.com,2013-07-03 17:24:00,
2013-07-03 13:39:00,79.5,68.8,29.99,SE,135,4.7,-999.0,70,-99.99,,,0.00,Acu-Link.com,2013-07-03 17:39:00,
2013-07-03 13:54:00,80.1,70.2,30.00,ESE,112,7.8,-999.0,72,-99.99,,,0.00,Acu-Link.com,2013-07-03 17:54:00,
2013-07-03 14:25:00,79.7,70.7,30.00,WNW,292,3.2,-999.0,74,-99.99,,,0.00,Acu-Link.com,2013-07-03 18:25:00,
2013-07-03 14:40:00,80.1,70.2,29.99,SSE,157,1.7,-999.0,72,-99.99,,,0.00,Acu-Link.com,2013-07-03 18:40:00,
2013-07-03 14:55:00,80.2,70.7,29.98,ESE,112,2.2,-999.0,73,-99.99,,,0.00,Acu-Link.com,2013-07-03 18:55:00,
2013-07-03 15:10:00,80.2,70.3,29.98,South,180,1.7,-999.0,72,-99.99,,,0.00,Acu-Link.com,2013-07-03 19:10:00,
2013-07-03 15:26:00,79.5,70.1,29.98,SE,135,4.7,-999.0,73,-99.99,,,0.00,Acu-Link.com,2013-07-03 19:26:00,
2013-07-03 15:41:00,80.2,70.7,29.98,SSW,202,2.2,-999.0,73,-99.99,,,0.00,Acu-Link.com,2013-07-03 19:41:00,
2013-07-03 16:11:00,80.6,70.7,29.97,ESE,112,2.2,-999.0,72,-99.99,,,0.00,Acu-Link.com,2013-07-03 20:11:00,
2013-07-03 16:26:00,79.5,70.1,29.97,SE,135,4.2,-999.0,73,-99.99,,,0.00,Acu-Link.com,2013-07-03 20:26:00,
2013-07-03 16:42:00,79.5,69.7,29.97,SE,135,3.7,-999.0,72,-99.99,,,0.00,Acu-Link.com,2013-07-03 20:42:00,
2013-07-03 16:57:00,78.6,69.6,29.96,West,270,4.7,-999.0,74,-99.99,,,0.00,Acu-Link.com,2013-07-03 20:57:00,
2013-07-03 17:12:00,79.2,70.2,29.97,West,270,2.7,-999.0,74,-99.99,,,0.00,Acu-Link.com,2013-07-03 21:12:00,
2013-07-03 17:27:00,78.6,70.0,29.96,North,0,1.7,-999.0,75,-99.99,,,0.00,Acu-Link.com,2013-07-03 21:27:00,
2013-07-03 17:42:00,78.3,70.1,29.96,SE,135,5.3,-999.0,76,-99.99,,,0.00,Acu-Link.com,2013-07-03 21:42:00,
2013-07-03 17:58:00,78.8,70.6,29.95,WSW,247,2.2,-999.0,76,-99.99,,,0.00,Acu-Link.com,2013-07-03 21:58:00,
2013-07-03 18:13:00,78.1,70.3,29.95,South,180,1.1,-999.0,77,-99.99,,,0.00,Acu-Link.com,2013-07-03 22:13:00,
2013-07-03 18:28:00,78.1,70.3,29.95,South,180,1.7,-999.0,77,-99.99,,,0.00,Acu-Link.com,2013-07-03 22:28:00,
2013-07-03 18:43:00,78.1,70.7,29.95,SSW,202,2.2,-999.0,78,-99.99,,,0.00,Acu-Link.com,2013-07-03 22:43:00,
2013-07-03 18:58:00,77.0,70.0,29.96,East,90,2.2,-999.0,79,-99.99,,,0.00,Acu-Link.com,2013-07-03 22:58:00,
2013-07-03 19:14:00,77.0,70.0,29.96,ESE,112,3.7,-999.0,79,-99.99,,,0.00,Acu-Link.com,2013-07-03 23:14:00,
2013-07-03 19:29:00,77.0,70.0,29.97,SSW,202,2.7,-999.0,79,-99.99,,,0.00,Acu-Link.com,2013-07-03 23:29:00,
2013-07-03 19:44:00,76.5,70.2,29.98,SSE,157,2.2,-999.0,81,-99.99,,,0.00,Acu-Link.com,2013-07-03 23:44:00,
2013-07-03 20:30:00,75.4,69.9,29.97,SE,135,2.7,-999.0,83,-99.99,,,0.00,Acu-Link.com,2013-07-04 00:30:00,
2013-07-03 20:45:00,75.0,69.8,29.97,SE,135,2.7,-999.0,84,-99.99,,,0.00,Acu-Link.com,2013-07-04 00:45:00,
2013-07-03 21:00:00,74.8,69.6,29.97,NW,315,2.7,-999.0,84,-99.99,,,0.00,Acu-Link.com,2013-07-04 01:00:00,
2013-07-03 21:15:00,74.3,68.8,29.97,SSW,202,2.2,-999.0,83,-99.99,,,0.00,Acu-Link.com,2013-07-04 01:15:00,
2013-07-03 21:31:00,73.9,68.0,29.97,West,270,2.2,-999.0,82,-99.99,,,0.00,Acu-Link.com,2013-07-04 01:31:00,
2013-07-03 21:46:00,73.6,68.1,29.98,SW,225,1.7,-999.0,83,-99.99,,,0.00,Acu-Link.com,2013-07-04 01:46:00,
2013-07-03 22:01:00,73.2,67.7,29.99,SE,135,7.3,-999.0,83,-99.99,,,0.00,Acu-Link.com,2013-07-04 02:01:00,
2013-07-03 22:16:00,73.0,67.5,29.99,SW,225,1.7,-999.0,83,-99.99,,,0.00,Acu-Link.com,2013-07-04 02:16:00,
2013-07-03 22:32:00,72.5,67.4,29.99,SSE,157,4.2,-999.0,84,-99.99,,,0.00,Acu-Link.com,2013-07-04 02:32:00,
2013-07-03 22:47:00,72.3,67.5,29.99,ESE,112,4.2,-999.0,85,-99.99,,,0.00,Acu-Link.com,2013-07-04 02:47:00,
2013-07-03 23:02:00,72.0,67.6,30.00,SSE,157,2.2,-999.0,86,-99.99,,,0.00,Acu-Link.com,2013-07-04 03:02:00,
2013-07-03 23:17:00,72.0,67.6,29.99,SSE,157,2.2,-999.0,86,-99.99,,,0.00,Acu-Link.com,2013-07-04 03:17:00,
2013-07-03 23:33:00,71.6,67.2,30.00,NW,315,2.7,-999.0,86,-99.99,,,0.00,Acu-Link.com,2013-07-04 03:33:00,
2013-07-03 23:48:00,71.4,67.0,30.00,West,270,4.2,-999.0,86,-99.99,,,0.00,Acu-Link.com,2013-07-04 03:48:00,